sensor_id;sensor_type;location;lat;lon;timestamp;temperature;humidity
1546;DHT22;766;51.502;9.752;2024-03-02T00:02:02;6.80;99.90
1546;DHT22;766;51.502;9.752;2024-03-02T00:04:30;6.80;99.90
1546;DHT22;766;51.502;9.752;2024-03-02T00:06:58;6.80;99.90
1546;DHT22;766;51.502;9.752;2024-03-02T00:09:27;6.80;99.90
1546;DHT22;766;51.502;9.752;2024-03-02T00:11:55;6.80;99.90
1546;DHT22;766;51.502;9.752;2024-03-02T00:14:29;6.80;99.90
1546;DHT22;766;51.502;9.752;2024-03-02T00:16:58;6.80;99.90
1546;DHT22;766;51.502;9.752;2024-03-02T00:19:26;6.80;99.90
1546;DHT22;766;51.502;9.752;2024-03-02T00:21:55;6.80;99.90
1546;DHT22;766;51.502;9.752;2024-03-02T00:24:30;6.80;99.90
1546;DHT22;766;51.502;9.752;2024-03-02T00:26:59;6.90;99.90
1546;DHT22;766;51.502;9.752;2024-03-02T00:29:29;6.90;99.90
1546;DHT22;766;51.502;9.752;2024-03-02T00:31:58;6.90;99.90
1546;DHT22;766;51.502;9.752;2024-03-02T00:34:26;6.80;99.90
1546;DHT22;766;51.502;9.752;2024-03-02T00:36:57;6.80;99.90
1546;DHT22;766;51.502;9.752;2024-03-02T00:39:26;6.80;99.90
1546;DHT22;766;51.502;9.752;2024-03-02T00:41:55;6.80;99.90
1546;DHT22;766;51.502;9.752;2024-03-02T00:44:25;6.80;99.90
1546;DHT22;766;51.502;9.752;2024-03-02T00:46:58;6.80;99.90
1546;DHT22;766;51.502;9.752;2024-03-02T00:49:27;6.80;99.90
1546;DHT22;766;51.502;9.752;2024-03-02T00:51:56;6.80;99.90
1546;DHT22;766;51.502;9.752;2024-03-02T00:54:26;6.80;99.90
1546;DHT22;766;51.502;9.752;2024-03-02T00:56:56;6.80;99.90
1546;DHT22;766;51.502;9.752;2024-03-02T00:59:26;6.70;99.90
1546;DHT22;766;51.502;9.752;2024-03-02T01:01:54;6.70;99.90
1546;DHT22;766;51.502;9.752;2024-03-02T01:04:24;6.80;99.90
1546;DHT22;766;51.502;9.752;2024-03-02T01:06:52;6.80;99.90
1546;DHT22;766;51.502;9.752;2024-03-02T01:09:20;6.80;99.90
1546;DHT22;766;51.502;9.752;2024-03-02T01:11:52;6.80;99.90
1546;DHT22;766;51.502;9.752;2024-03-02T01:14:20;6.80;99.90
1546;DHT22;766;51.502;9.752;2024-03-02T01:16:49;6.80;99.90
1546;DHT22;766;51.502;9.752;2024-03-02T01:19:17;6.80;99.90
1546;DHT22;766;51.502;9.752;2024-03-02T01:21:47;6.80;99.90
1546;DHT22;766;51.502;9.752;2024-03-02T01:24:17;6.80;99.90
1546;DHT22;766;51.502;9.752;2024-03-02T01:26:45;6.80;99.90
1546;DHT22;766;51.502;9.752;2024-03-02T01:29:13;6.80;99.90
1546;DHT22;766;51.502;9.752;2024-03-02T01:31:41;6.90;99.90
1546;DHT22;766;51.502;9.752;2024-03-02T01:34:10;6.80;99.90
1546;DHT22;766;51.502;9.752;2024-03-02T01:36:39;6.80;99.90
1546;DHT22;766;51.502;9.752;2024-03-02T01:39:09;6.90;99.90
1546;DHT22;766;51.502;9.752;2024-03-02T01:41:37;6.80;99.90
1546;DHT22;766;51.502;9.752;2024-03-02T01:44:05;6.80;99.90
1546;DHT22;766;51.502;9.752;2024-03-02T01:46:33;6.80;99.90
1546;DHT22;766;51.502;9.752;2024-03-02T01:49:02;6.90;99.90
1546;DHT22;766;51.502;9.752;2024-03-02T01:51:31;6.80;99.90
1546;DHT22;766;51.502;9.752;2024-03-02T01:54:02;6.80;99.90
1546;DHT22;766;51.502;9.752;2024-03-02T01:56:32;6.70;99.90
1546;DHT22;766;51.502;9.752;2024-03-02T01:59:00;6.70;99.90
1546;DHT22;766;51.502;9.752;2024-03-02T02:01:29;6.70;99.90
1546;DHT22;766;51.502;9.752;2024-03-02T02:03:58;6.70;99.90
1546;DHT22;766;51.502;9.752;2024-03-02T02:06:26;6.70;99.90
1546;DHT22;766;51.502;9.752;2024-03-02T02:08:54;6.70;99.90
1546;DHT22;766;51.502;9.752;2024-03-02T02:11:22;6.60;99.90
1546;DHT22;766;51.502;9.752;2024-03-02T02:13:54;6.60;99.90
1546;DHT22;766;51.502;9.752;2024-03-02T02:16:22;6.60;99.90
1546;DHT22;766;51.502;9.752;2024-03-02T02:18:52;6.60;99.90
1546;DHT22;766;51.502;9.752;2024-03-02T02:21:24;6.60;99.90
1546;DHT22;766;51.502;9.752;2024-03-02T02:23:52;6.60;99.90
1546;DHT22;766;51.502;9.752;2024-03-02T02:26:20;6.70;99.90
1546;DHT22;766;51.502;9.752;2024-03-02T02:28:49;6.60;99.90
1546;DHT22;766;51.502;9.752;2024-03-02T02:31:18;6.60;99.90
1546;DHT22;766;51.502;9.752;2024-03-02T02:33:46;6.60;99.90
1546;DHT22;766;51.502;9.752;2024-03-02T02:36:14;6.60;99.90
1546;DHT22;766;51.502;9.752;2024-03-02T02:38:48;6.60;99.90
1546;DHT22;766;51.502;9.752;2024-03-02T02:41:17;6.60;99.90
1546;DHT22;766;51.502;9.752;2024-03-02T02:43:45;6.60;99.90
1546;DHT22;766;51.502;9.752;2024-03-02T02:46:13;6.60;99.90
1546;DHT22;766;51.502;9.752;2024-03-02T02:48:41;6.70;99.90
1546;DHT22;766;51.502;9.752;2024-03-02T02:51:09;6.70;99.90
1546;DHT22;766;51.502;9.752;2024-03-02T02:53:37;6.60;99.90
1546;DHT22;766;51.502;9.752;2024-03-02T02:56:09;6.60;99.90
1546;DHT22;766;51.502;9.752;2024-03-02T02:58:39;6.70;99.90
1546;DHT22;766;51.502;9.752;2024-03-02T03:01:07;6.60;99.90
1546;DHT22;766;51.502;9.752;2024-03-02T03:03:36;6.70;99.90
1546;DHT22;766;51.502;9.752;2024-03-02T03:06:04;6.70;99.90
1546;DHT22;766;51.502;9.752;2024-03-02T03:08:32;6.70;99.90
1546;DHT22;766;51.502;9.752;2024-03-02T03:11:00;6.70;99.90
1546;DHT22;766;51.502;9.752;2024-03-02T03:13:30;6.70;99.90
1546;DHT22;766;51.502;9.752;2024-03-02T03:15:58;6.60;99.90
1546;DHT22;766;51.502;9.752;2024-03-02T03:18:27;6.60;99.90
1546;DHT22;766;51.502;9.752;2024-03-02T03:20:55;6.60;99.90
1546;DHT22;766;51.502;9.752;2024-03-02T03:23:23;6.50;99.90
1546;DHT22;766;51.502;9.752;2024-03-02T03:25:52;6.50;99.90
1546;DHT22;766;51.502;9.752;2024-03-02T03:28:20;6.50;99.90
1546;DHT22;766;51.502;9.752;2024-03-02T03:30:50;6.40;99.90
1546;DHT22;766;51.502;9.752;2024-03-02T03:33:18;6.40;99.90
1546;DHT22;766;51.502;9.752;2024-03-02T03:35:46;6.40;99.90
1546;DHT22;766;51.502;9.752;2024-03-02T03:38:15;6.50;99.90
1546;DHT22;766;51.502;9.752;2024-03-02T03:40:43;6.40;99.90
1546;DHT22;766;51.502;9.752;2024-03-02T03:43:11;6.40;99.90
1546;DHT22;766;51.502;9.752;2024-03-02T03:45:42;6.40;99.90
1546;DHT22;766;51.502;9.752;2024-03-02T03:48:11;6.30;99.90
1546;DHT22;766;51.502;9.752;2024-03-02T03:50:39;6.30;99.90
1546;DHT22;766;51.502;9.752;2024-03-02T03:53:08;6.30;99.90
1546;DHT22;766;51.502;9.752;2024-03-02T03:55:36;6.20;99.90
1546;DHT22;766;51.502;9.752;2024-03-02T03:58:04;6.20;99.90
1546;DHT22;766;51.502;9.752;2024-03-02T04:00:32;6.10;99.90
1546;DHT22;766;51.502;9.752;2024-03-02T04:03:04;6.10;99.90
1546;DHT22;766;51.502;9.752;2024-03-02T04:05:34;6.10;99.90
1546;DHT22;766;51.502;9.752;2024-03-02T04:08:02;6.00;99.90
1546;DHT22;766;51.502;9.752;2024-03-02T04:10:31;6.00;99.90
1546;DHT22;766;51.502;9.752;2024-03-02T04:12:59;6.00;99.90
1546;DHT22;766;51.502;9.752;2024-03-02T04:15:27;5.90;99.90
1546;DHT22;766;51.502;9.752;2024-03-02T04:17:55;5.90;99.90
1546;DHT22;766;51.502;9.752;2024-03-02T04:20:27;5.90;99.90
1546;DHT22;766;51.502;9.752;2024-03-02T04:22:56;5.90;99.90
1546;DHT22;766;51.502;9.752;2024-03-02T04:25:24;5.90;99.90
1546;DHT22;766;51.502;9.752;2024-03-02T04:27:52;5.90;99.90
1546;DHT22;766;51.502;9.752;2024-03-02T04:30:21;5.80;99.90
1546;DHT22;766;51.502;9.752;2024-03-02T04:32:49;5.80;99.90
1546;DHT22;766;51.502;9.752;2024-03-02T04:35:17;5.80;99.90
1546;DHT22;766;51.502;9.752;2024-03-02T04:37:45;5.70;99.90
1546;DHT22;766;51.502;9.752;2024-03-02T04:40:15;5.70;99.90
1546;DHT22;766;51.502;9.752;2024-03-02T04:42:43;5.60;99.90
1546;DHT22;766;51.502;9.752;2024-03-02T04:45:11;5.60;99.90
1546;DHT22;766;51.502;9.752;2024-03-02T04:47:39;5.60;99.90
1546;DHT22;766;51.502;9.752;2024-03-02T04:50:08;5.60;99.90
1546;DHT22;766;51.502;9.752;2024-03-02T04:52:37;5.60;99.90
1546;DHT22;766;51.502;9.752;2024-03-02T04:55:05;5.60;99.90
1546;DHT22;766;51.502;9.752;2024-03-02T04:58:03;5.60;99.90
1546;DHT22;766;51.502;9.752;2024-03-02T05:00:35;5.50;99.90
1546;DHT22;766;51.502;9.752;2024-03-02T05:03:04;5.60;99.90
1546;DHT22;766;51.502;9.752;2024-03-02T05:05:32;5.50;99.90
1546;DHT22;766;51.502;9.752;2024-03-02T05:08:00;5.40;99.90
1546;DHT22;766;51.502;9.752;2024-03-02T05:10:28;5.40;99.90
1546;DHT22;766;51.502;9.752;2024-03-02T05:12:56;5.30;99.90
1546;DHT22;766;51.502;9.752;2024-03-02T05:15:27;5.40;99.90
1546;DHT22;766;51.502;9.752;2024-03-02T05:17:55;5.50;99.90
1546;DHT22;766;51.502;9.752;2024-03-02T05:20:26;5.50;99.90
1546;DHT22;766;51.502;9.752;2024-03-02T05:22:54;5.50;99.90
1546;DHT22;766;51.502;9.752;2024-03-02T05:25:22;5.50;99.90
1546;DHT22;766;51.502;9.752;2024-03-02T05:27:50;5.40;99.90
1546;DHT22;766;51.502;9.752;2024-03-02T05:30:19;5.40;99.90
1546;DHT22;766;51.502;9.752;2024-03-02T05:32:48;5.40;99.90
1546;DHT22;766;51.502;9.752;2024-03-02T05:35:16;5.40;99.90
1546;DHT22;766;51.502;9.752;2024-03-02T05:37:45;5.40;99.90
1546;DHT22;766;51.502;9.752;2024-03-02T05:40:13;5.40;99.90
1546;DHT22;766;51.502;9.752;2024-03-02T05:42:42;5.40;99.90
1546;DHT22;766;51.502;9.752;2024-03-02T05:45:10;5.40;99.90
1546;DHT22;766;51.502;9.752;2024-03-02T05:47:38;5.40;99.90
1546;DHT22;766;51.502;9.752;2024-03-02T05:50:09;5.40;99.90
1546;DHT22;766;51.502;9.752;2024-03-02T05:52:37;5.50;99.90
1546;DHT22;766;51.502;9.752;2024-03-02T05:55:06;5.50;99.90
1546;DHT22;766;51.502;9.752;2024-03-02T05:57:34;5.50;99.90
1546;DHT22;766;51.502;9.752;2024-03-02T06:00:22;5.50;99.90
1546;DHT22;766;51.502;9.752;2024-03-02T06:02:51;5.40;99.90
1546;DHT22;766;51.502;9.752;2024-03-02T06:05:21;5.40;99.90
1546;DHT22;766;51.502;9.752;2024-03-02T06:07:49;5.40;99.90
1546;DHT22;766;51.502;9.752;2024-03-02T06:10:17;5.40;99.90
1546;DHT22;766;51.502;9.752;2024-03-02T06:12:45;5.40;99.90
1546;DHT22;766;51.502;9.752;2024-03-02T06:15:14;5.40;99.90
1546;DHT22;766;51.502;9.752;2024-03-02T06:17:42;5.40;99.90
1546;DHT22;766;51.502;9.752;2024-03-02T06:20:11;5.40;99.90
1546;DHT22;766;51.502;9.752;2024-03-02T06:22:41;5.40;99.90
1546;DHT22;766;51.502;9.752;2024-03-02T06:25:09;5.50;99.90
1546;DHT22;766;51.502;9.752;2024-03-02T06:27:37;5.50;99.90
1546;DHT22;766;51.502;9.752;2024-03-02T06:30:06;5.50;99.90
1546;DHT22;766;51.502;9.752;2024-03-02T06:32:35;5.50;99.90
1546;DHT22;766;51.502;9.752;2024-03-02T06:35:04;5.50;99.90
1546;DHT22;766;51.502;9.752;2024-03-02T06:37:39;5.50;99.90
1546;DHT22;766;51.502;9.752;2024-03-02T06:40:08;5.50;99.90
1546;DHT22;766;51.502;9.752;2024-03-02T06:42:37;5.50;99.90
1546;DHT22;766;51.502;9.752;2024-03-02T06:45:06;5.50;99.90
1546;DHT22;766;51.502;9.752;2024-03-02T06:47:34;5.50;99.90
1546;DHT22;766;51.502;9.752;2024-03-02T06:50:03;5.50;99.90
1546;DHT22;766;51.502;9.752;2024-03-02T06:52:31;5.60;99.90
1546;DHT22;766;51.502;9.752;2024-03-02T06:55:00;5.60;99.90
1546;DHT22;766;51.502;9.752;2024-03-02T06:57:29;5.60;99.90
1546;DHT22;766;51.502;9.752;2024-03-02T06:59:57;5.60;99.90
1546;DHT22;766;51.502;9.752;2024-03-02T07:02:26;5.60;99.90
1546;DHT22;766;51.502;9.752;2024-03-02T07:04:54;5.60;99.90
1546;DHT22;766;51.502;9.752;2024-03-02T07:07:23;5.60;99.90
1546;DHT22;766;51.502;9.752;2024-03-02T07:09:51;5.70;99.90
1546;DHT22;766;51.502;9.752;2024-03-02T07:12:21;5.70;99.90
1546;DHT22;766;51.502;9.752;2024-03-02T07:14:49;5.70;99.90
1546;DHT22;766;51.502;9.752;2024-03-02T07:17:38;5.70;99.90
1546;DHT22;766;51.502;9.752;2024-03-02T07:20:10;5.80;99.90
1546;DHT22;766;51.502;9.752;2024-03-02T07:22:39;5.80;99.90
1546;DHT22;766;51.502;9.752;2024-03-02T07:25:11;5.90;99.90
1546;DHT22;766;51.502;9.752;2024-03-02T07:27:44;5.90;99.90
1546;DHT22;766;51.502;9.752;2024-03-02T07:30:14;5.90;99.90
1546;DHT22;766;51.502;9.752;2024-03-02T07:32:44;6.00;99.90
1546;DHT22;766;51.502;9.752;2024-03-02T07:35:13;6.00;99.90
1546;DHT22;766;51.502;9.752;2024-03-02T07:37:41;6.10;99.90
1546;DHT22;766;51.502;9.752;2024-03-02T07:40:13;6.20;99.90
1546;DHT22;766;51.502;9.752;2024-03-02T07:42:41;6.20;99.90
1546;DHT22;766;51.502;9.752;2024-03-02T07:45:11;6.30;99.90
1546;DHT22;766;51.502;9.752;2024-03-02T07:47:40;6.40;99.90
1546;DHT22;766;51.502;9.752;2024-03-02T07:50:09;6.40;99.90
1546;DHT22;766;51.502;9.752;2024-03-02T07:52:37;6.50;99.90
1546;DHT22;766;51.502;9.752;2024-03-02T07:55:05;6.60;99.90
1546;DHT22;766;51.502;9.752;2024-03-02T07:57:34;6.70;99.90
1546;DHT22;766;51.502;9.752;2024-03-02T08:00:03;6.80;99.90
1546;DHT22;766;51.502;9.752;2024-03-02T08:02:32;6.90;99.90
1546;DHT22;766;51.502;9.752;2024-03-02T08:05:01;6.90;99.90
1546;DHT22;766;51.502;9.752;2024-03-02T08:07:29;7.00;99.90
1546;DHT22;766;51.502;9.752;2024-03-02T08:09:57;7.10;99.90
1546;DHT22;766;51.502;9.752;2024-03-02T08:12:26;7.20;99.90
1546;DHT22;766;51.502;9.752;2024-03-02T08:14:54;7.40;99.90
1546;DHT22;766;51.502;9.752;2024-03-02T08:17:22;7.50;99.90
1546;DHT22;766;51.502;9.752;2024-03-02T08:19:52;7.60;99.90
1546;DHT22;766;51.502;9.752;2024-03-02T08:22:20;7.70;99.90
1546;DHT22;766;51.502;9.752;2024-03-02T08:24:49;7.70;99.90
1546;DHT22;766;51.502;9.752;2024-03-02T08:27:17;7.90;99.90
1546;DHT22;766;51.502;9.752;2024-03-02T08:29:45;7.90;99.90
1546;DHT22;766;51.502;9.752;2024-03-02T08:32:14;8.10;99.90
1546;DHT22;766;51.502;9.752;2024-03-02T08:34:44;8.10;99.90
1546;DHT22;766;51.502;9.752;2024-03-02T08:37:15;8.20;99.90
1546;DHT22;766;51.502;9.752;2024-03-02T08:39:45;8.20;99.90
1546;DHT22;766;51.502;9.752;2024-03-02T08:42:16;8.20;99.90
1546;DHT22;766;51.502;9.752;2024-03-02T08:44:45;8.20;99.90
1546;DHT22;766;51.502;9.752;2024-03-02T08:47:13;8.20;99.90
1546;DHT22;766;51.502;9.752;2024-03-02T08:49:42;8.20;99.90
1546;DHT22;766;51.502;9.752;2024-03-02T08:52:10;8.30;99.90
1546;DHT22;766;51.502;9.752;2024-03-02T08:54:39;8.30;99.90
1546;DHT22;766;51.502;9.752;2024-03-02T08:57:08;8.30;99.90
1546;DHT22;766;51.502;9.752;2024-03-02T08:59:37;8.30;99.90
1546;DHT22;766;51.502;9.752;2024-03-02T09:02:07;8.40;99.90
1546;DHT22;766;51.502;9.752;2024-03-02T09:04:35;8.30;99.90
1546;DHT22;766;51.502;9.752;2024-03-02T09:07:03;8.30;99.90
1546;DHT22;766;51.502;9.752;2024-03-02T09:09:32;8.30;99.90
1546;DHT22;766;51.502;9.752;2024-03-02T09:12:01;8.40;99.90
1546;DHT22;766;51.502;9.752;2024-03-02T09:14:30;8.50;99.90
1546;DHT22;766;51.502;9.752;2024-03-02T09:16:58;8.60;99.90
1546;DHT22;766;51.502;9.752;2024-03-02T09:19:26;8.80;99.90
1546;DHT22;766;51.502;9.752;2024-03-02T09:21:57;8.70;99.90
1546;DHT22;766;51.502;9.752;2024-03-02T09:24:26;8.80;99.90
1546;DHT22;766;51.502;9.752;2024-03-02T09:26:54;8.80;99.90
1546;DHT22;766;51.502;9.752;2024-03-02T09:29:23;8.80;99.90
1546;DHT22;766;51.502;9.752;2024-03-02T09:31:52;8.80;99.90
1546;DHT22;766;51.502;9.752;2024-03-02T09:34:24;8.90;99.90
1546;DHT22;766;51.502;9.752;2024-03-02T09:36:52;8.90;99.90
1546;DHT22;766;51.502;9.752;2024-03-02T09:39:20;9.00;99.90
1546;DHT22;766;51.502;9.752;2024-03-02T09:41:49;9.20;99.90
1546;DHT22;766;51.502;9.752;2024-03-02T09:44:18;9.10;99.90
1546;DHT22;766;51.502;9.752;2024-03-02T09:46:50;9.20;99.90
1546;DHT22;766;51.502;9.752;2024-03-02T09:49:19;9.20;99.90
1546;DHT22;766;51.502;9.752;2024-03-02T09:51:48;9.20;99.90
1546;DHT22;766;51.502;9.752;2024-03-02T09:54:17;9.30;99.90
1546;DHT22;766;51.502;9.752;2024-03-02T09:56:49;9.30;99.90
1546;DHT22;766;51.502;9.752;2024-03-02T09:59:18;9.30;99.90
1546;DHT22;766;51.502;9.752;2024-03-02T10:01:58;9.40;99.90
1546;DHT22;766;51.502;9.752;2024-03-02T10:04:30;9.60;99.90
1546;DHT22;766;51.502;9.752;2024-03-02T10:07:13;9.70;99.90
1546;DHT22;766;51.502;9.752;2024-03-02T10:09:42;9.70;99.90
1546;DHT22;766;51.502;9.752;2024-03-02T10:12:13;9.80;99.90
1546;DHT22;766;51.502;9.752;2024-03-02T10:14:42;9.80;99.90
1546;DHT22;766;51.502;9.752;2024-03-02T10:17:13;9.80;99.90
1546;DHT22;766;51.502;9.752;2024-03-02T10:19:42;9.90;99.90
1546;DHT22;766;51.502;9.752;2024-03-02T10:22:13;9.90;99.90
1546;DHT22;766;51.502;9.752;2024-03-02T10:24:42;10.00;99.90
1546;DHT22;766;51.502;9.752;2024-03-02T10:27:15;10.20;99.90
1546;DHT22;766;51.502;9.752;2024-03-02T10:29:46;10.30;99.90
1546;DHT22;766;51.502;9.752;2024-03-02T10:32:16;10.30;99.90
1546;DHT22;766;51.502;9.752;2024-03-02T10:34:46;10.30;99.90
1546;DHT22;766;51.502;9.752;2024-03-02T10:37:15;10.40;99.90
1546;DHT22;766;51.502;9.752;2024-03-02T10:39:46;10.20;99.90
1546;DHT22;766;51.502;9.752;2024-03-02T10:42:15;10.30;99.90
1546;DHT22;766;51.502;9.752;2024-03-02T10:44:45;10.30;99.90
1546;DHT22;766;51.502;9.752;2024-03-02T10:47:18;10.30;99.90
1546;DHT22;766;51.502;9.752;2024-03-02T10:49:51;10.40;99.90
1546;DHT22;766;51.502;9.752;2024-03-02T10:52:20;10.40;99.90
1546;DHT22;766;51.502;9.752;2024-03-02T10:54:50;10.40;99.90
1546;DHT22;766;51.502;9.752;2024-03-02T10:57:21;10.40;99.90
1546;DHT22;766;51.502;9.752;2024-03-02T10:59:52;10.30;99.90
1546;DHT22;766;51.502;9.752;2024-03-02T11:02:24;10.30;99.90
1546;DHT22;766;51.502;9.752;2024-03-02T11:04:55;10.20;99.90
1546;DHT22;766;51.502;9.752;2024-03-02T11:07:25;10.30;99.90
1546;DHT22;766;51.502;9.752;2024-03-02T11:09:57;10.40;99.90
1546;DHT22;766;51.502;9.752;2024-03-02T11:12:29;10.40;99.90
1546;DHT22;766;51.502;9.752;2024-03-02T11:15:00;10.50;99.90
1546;DHT22;766;51.502;9.752;2024-03-02T11:17:32;10.40;99.90
1546;DHT22;766;51.502;9.752;2024-03-02T11:20:02;10.40;99.90
1546;DHT22;766;51.502;9.752;2024-03-02T11:22:31;10.40;99.90
1546;DHT22;766;51.502;9.752;2024-03-02T11:24:59;10.20;99.90
1546;DHT22;766;51.502;9.752;2024-03-02T11:28:04;10.20;99.90
1546;DHT22;766;51.502;9.752;2024-03-02T11:30:55;10.20;99.90
1546;DHT22;766;51.502;9.752;2024-03-02T11:33:25;10.10;99.90
1546;DHT22;766;51.502;9.752;2024-03-02T11:35:58;10.20;99.90
1546;DHT22;766;51.502;9.752;2024-03-02T11:38:33;10.20;99.90
1546;DHT22;766;51.502;9.752;2024-03-02T11:41:03;10.40;99.90
1546;DHT22;766;51.502;9.752;2024-03-02T11:43:37;10.40;99.90
1546;DHT22;766;51.502;9.752;2024-03-02T11:46:06;10.40;99.90
1546;DHT22;766;51.502;9.752;2024-03-02T11:48:37;10.50;99.90
1546;DHT22;766;51.502;9.752;2024-03-02T11:51:06;10.60;99.90
1546;DHT22;766;51.502;9.752;2024-03-02T11:53:39;11.00;99.90
1546;DHT22;766;51.502;9.752;2024-03-02T11:56:09;11.40;99.90
1546;DHT22;766;51.502;9.752;2024-03-02T11:58:39;11.80;99.90
1546;DHT22;766;51.502;9.752;2024-03-02T12:01:08;12.10;99.90
1546;DHT22;766;51.502;9.752;2024-03-02T12:03:41;12.30;99.90
1546;DHT22;766;51.502;9.752;2024-03-02T12:06:09;12.80;99.90
1546;DHT22;766;51.502;9.752;2024-03-02T12:08:38;13.20;99.90
1546;DHT22;766;51.502;9.752;2024-03-02T12:11:06;13.60;99.90
1546;DHT22;766;51.502;9.752;2024-03-02T12:13:35;13.70;99.90
1546;DHT22;766;51.502;9.752;2024-03-02T12:16:04;13.50;99.90
1546;DHT22;766;51.502;9.752;2024-03-02T12:18:33;13.10;99.90
1546;DHT22;766;51.502;9.752;2024-03-02T12:21:02;13.20;99.90
1546;DHT22;766;51.502;9.752;2024-03-02T12:23:31;13.30;99.90
1546;DHT22;766;51.502;9.752;2024-03-02T12:25:59;13.30;99.90
1546;DHT22;766;51.502;9.752;2024-03-02T12:28:28;13.40;99.90
1546;DHT22;766;51.502;9.752;2024-03-02T12:30:58;13.60;99.90
1546;DHT22;766;51.502;9.752;2024-03-02T12:33:26;13.40;99.90
1546;DHT22;766;51.502;9.752;2024-03-02T12:35:57;13.50;99.90
1546;DHT22;766;51.502;9.752;2024-03-02T12:38:27;13.80;99.90
1546;DHT22;766;51.502;9.752;2024-03-02T12:40:57;13.30;99.90
1546;DHT22;766;51.502;9.752;2024-03-02T12:43:30;13.10;99.90
1546;DHT22;766;51.502;9.752;2024-03-02T12:45:59;13.10;99.90
1546;DHT22;766;51.502;9.752;2024-03-02T12:48:27;12.80;99.90
1546;DHT22;766;51.502;9.752;2024-03-02T12:50:56;12.60;99.90
1546;DHT22;766;51.502;9.752;2024-03-02T12:53:24;12.60;99.90
1546;DHT22;766;51.502;9.752;2024-03-02T12:55:54;12.50;99.90
1546;DHT22;766;51.502;9.752;2024-03-02T12:58:22;12.40;99.90
1546;DHT22;766;51.502;9.752;2024-03-02T13:01:05;12.40;99.90
1546;DHT22;766;51.502;9.752;2024-03-02T13:03:37;12.50;99.90
1546;DHT22;766;51.502;9.752;2024-03-02T13:06:06;12.70;99.90
1546;DHT22;766;51.502;9.752;2024-03-02T13:08:34;12.70;99.90
1546;DHT22;766;51.502;9.752;2024-03-02T13:11:04;12.80;99.90
1546;DHT22;766;51.502;9.752;2024-03-02T13:13:34;12.70;99.90
1546;DHT22;766;51.502;9.752;2024-03-02T13:16:02;12.70;99.90
1546;DHT22;766;51.502;9.752;2024-03-02T13:18:31;12.60;99.90
1546;DHT22;766;51.502;9.752;2024-03-02T13:21:01;12.60;99.90
1546;DHT22;766;51.502;9.752;2024-03-02T13:23:29;12.70;99.90
1546;DHT22;766;51.502;9.752;2024-03-02T13:25:58;12.70;99.90
1546;DHT22;766;51.502;9.752;2024-03-02T13:28:28;12.60;99.90
1546;DHT22;766;51.502;9.752;2024-03-02T13:30:56;12.60;99.90
1546;DHT22;766;51.502;9.752;2024-03-02T13:33:25;12.70;99.90
1546;DHT22;766;51.502;9.752;2024-03-02T13:35:53;12.70;99.90
1546;DHT22;766;51.502;9.752;2024-03-02T13:38:21;12.70;99.90
1546;DHT22;766;51.502;9.752;2024-03-02T13:40:50;12.80;99.90
1546;DHT22;766;51.502;9.752;2024-03-02T13:43:18;12.70;99.90
1546;DHT22;766;51.502;9.752;2024-03-02T13:45:48;12.70;99.90
1546;DHT22;766;51.502;9.752;2024-03-02T13:48:18;12.80;99.90
1546;DHT22;766;51.502;9.752;2024-03-02T13:50:47;12.90;99.90
1546;DHT22;766;51.502;9.752;2024-03-02T13:53:16;12.90;99.90
1546;DHT22;766;51.502;9.752;2024-03-02T13:55:44;12.60;99.90
1546;DHT22;766;51.502;9.752;2024-03-02T13:58:13;12.70;99.90
1546;DHT22;766;51.502;9.752;2024-03-02T14:00:41;12.70;99.90
1546;DHT22;766;51.502;9.752;2024-03-02T14:03:11;12.60;99.90
1546;DHT22;766;51.502;9.752;2024-03-02T14:05:39;12.50;99.90
1546;DHT22;766;51.502;9.752;2024-03-02T14:08:07;12.50;99.90
1546;DHT22;766;51.502;9.752;2024-03-02T14:10:35;12.50;99.90
1546;DHT22;766;51.502;9.752;2024-03-02T14:13:04;12.60;99.90
1546;DHT22;766;51.502;9.752;2024-03-02T14:15:32;12.60;99.90
1546;DHT22;766;51.502;9.752;2024-03-02T14:18:01;12.60;99.90
1546;DHT22;766;51.502;9.752;2024-03-02T14:20:30;12.60;99.90
1546;DHT22;766;51.502;9.752;2024-03-02T14:22:59;12.70;99.90
1546;DHT22;766;51.502;9.752;2024-03-02T14:25:28;12.70;99.90
1546;DHT22;766;51.502;9.752;2024-03-02T14:27:58;12.60;99.90
1546;DHT22;766;51.502;9.752;2024-03-02T14:30:46;12.40;99.90
1546;DHT22;766;51.502;9.752;2024-03-02T14:33:15;12.20;99.90
1546;DHT22;766;51.502;9.752;2024-03-02T14:35:45;12.20;99.90
1546;DHT22;766;51.502;9.752;2024-03-02T14:38:13;12.10;99.90
1546;DHT22;766;51.502;9.752;2024-03-02T14:40:42;12.10;99.90
1546;DHT22;766;51.502;9.752;2024-03-02T14:43:10;12.20;99.90
1546;DHT22;766;51.502;9.752;2024-03-02T14:45:38;12.20;99.90
1546;DHT22;766;51.502;9.752;2024-03-02T14:48:07;12.30;99.90
1546;DHT22;766;51.502;9.752;2024-03-02T14:50:36;12.30;99.90
1546;DHT22;766;51.502;9.752;2024-03-02T14:53:06;12.30;99.90
1546;DHT22;766;51.502;9.752;2024-03-02T14:55:34;12.30;99.90
1546;DHT22;766;51.502;9.752;2024-03-02T14:58:03;12.40;99.90
1546;DHT22;766;51.502;9.752;2024-03-02T15:00:32;12.40;99.90
1546;DHT22;766;51.502;9.752;2024-03-02T15:03:00;12.50;99.90
1546;DHT22;766;51.502;9.752;2024-03-02T15:05:30;12.50;99.90
1546;DHT22;766;51.502;9.752;2024-03-02T15:07:58;12.40;99.90
1546;DHT22;766;51.502;9.752;2024-03-02T15:10:30;12.50;99.90
1546;DHT22;766;51.502;9.752;2024-03-02T15:12:58;12.40;99.90
1546;DHT22;766;51.502;9.752;2024-03-02T15:15:26;12.30;99.90
1546;DHT22;766;51.502;9.752;2024-03-02T15:17:54;12.40;99.90
1546;DHT22;766;51.502;9.752;2024-03-02T15:20:22;12.40;99.90
1546;DHT22;766;51.502;9.752;2024-03-02T15:22:51;12.30;99.90
1546;DHT22;766;51.502;9.752;2024-03-02T15:25:19;12.30;99.90
1546;DHT22;766;51.502;9.752;2024-03-02T15:27:48;12.30;99.90
1546;DHT22;766;51.502;9.752;2024-03-02T15:30:17;12.30;99.90
1546;DHT22;766;51.502;9.752;2024-03-02T15:32:45;12.20;99.90
1546;DHT22;766;51.502;9.752;2024-03-02T15:35:14;12.20;99.90
1546;DHT22;766;51.502;9.752;2024-03-02T15:37:42;12.10;99.90
1546;DHT22;766;51.502;9.752;2024-03-02T15:40:10;12.10;99.90
1546;DHT22;766;51.502;9.752;2024-03-02T15:42:39;12.10;99.90
1546;DHT22;766;51.502;9.752;2024-03-02T15:45:09;12.00;99.90
1546;DHT22;766;51.502;9.752;2024-03-02T15:47:40;12.00;99.90
1546;DHT22;766;51.502;9.752;2024-03-02T15:50:09;12.00;99.90
1546;DHT22;766;51.502;9.752;2024-03-02T15:52:38;11.90;99.90
1546;DHT22;766;51.502;9.752;2024-03-02T15:55:06;11.90;99.90
1546;DHT22;766;51.502;9.752;2024-03-02T15:57:35;11.80;99.90
1546;DHT22;766;51.502;9.752;2024-03-02T16:00:04;11.80;99.90
1546;DHT22;766;51.502;9.752;2024-03-02T16:02:35;11.80;99.90
1546;DHT22;766;51.502;9.752;2024-03-02T16:05:03;11.70;99.90
1546;DHT22;766;51.502;9.752;2024-03-02T16:07:31;11.70;99.90
1546;DHT22;766;51.502;9.752;2024-03-02T16:09:59;11.60;99.90
1546;DHT22;766;51.502;9.752;2024-03-02T16:12:33;11.60;99.90
1546;DHT22;766;51.502;9.752;2024-03-02T16:15:04;11.60;99.90
1546;DHT22;766;51.502;9.752;2024-03-02T16:17:32;11.50;99.90
1546;DHT22;766;51.502;9.752;2024-03-02T16:20:02;11.50;99.90
1546;DHT22;766;51.502;9.752;2024-03-02T16:22:33;11.50;99.90
1546;DHT22;766;51.502;9.752;2024-03-02T16:25:01;11.40;99.90
1546;DHT22;766;51.502;9.752;2024-03-02T16:27:32;11.40;99.90
1546;DHT22;766;51.502;9.752;2024-03-02T16:30:01;11.30;99.90
1546;DHT22;766;51.502;9.752;2024-03-02T16:32:30;11.30;99.90
1546;DHT22;766;51.502;9.752;2024-03-02T16:34:58;11.20;99.90
1546;DHT22;766;51.502;9.752;2024-03-02T16:37:28;11.20;99.90
1546;DHT22;766;51.502;9.752;2024-03-02T16:39:56;11.20;99.90
1546;DHT22;766;51.502;9.752;2024-03-02T16:42:24;11.10;99.90
1546;DHT22;766;51.502;9.752;2024-03-02T16:44:53;11.00;99.90